Time;durP1;ratioP1;P1;durP2;ratioP2;P2;SDS_P1;SDS_P2;PMS_P1;PMS_P2;Temp;Humidity;BMP_temperature;BMP_pressure;BME280_temperature;BME280_humidity;BME280_pressure;Samples;Min_cycle;Max_cycle;Signal;HPM_P1;HPM_P2
2022/05/31 00:02:26;;;;;;;12.90;8.00;;;;;;;15.27;90.42;100833.45;107249;1251;74355;-65
2022/05/31 00:04:55;;;;;;;13.90;7.50;;;;;;;15.26;90.38;100835.80;107198;1251;70199;-71
2022/05/31 00:07:24;;;;;;;12.40;8.00;;;;;;;15.27;88.96;100840.65;107330;1250;68741;-66
2022/05/31 00:09:53;;;;;;;12.90;8.10;;;;;;;15.24;88.64;100840.02;107302;1250;71245;-67
2022/05/31 00:12:22;;;;;;;11.50;7.40;;;;;;;15.18;88.68;100837.60;107258;1251;61280;-70
2022/05/31 00:14:51;;;;;;;13.80;8.30;;;;;;;15.13;88.34;100840.99;107242;1250;60372;-68
2022/05/31 00:17:19;;;;;;;13.00;8.90;;;;;;;15.10;88.75;100840.27;107096;1251;74033;-68
2022/05/31 00:19:49;;;;;;;14.10;8.70;;;;;;;15.09;88.83;100842.06;107294;1250;72319;-69
2022/05/31 00:22:22;;;;;;;15.00;8.40;;;;;;;15.07;89.49;100842.56;107147;1251;70600;-69
2022/05/31 00:24:51;;;;;;;13.90;8.40;;;;;;;15.04;90.83;100842.85;107193;1250;73510;-69
2022/05/31 00:27:23;;;;;;;13.80;8.80;;;;;;;14.99;91.02;100842.92;107233;1250;63002;-68
2022/05/31 00:29:53;;;;;;;13.60;8.10;;;;;;;14.95;90.82;100839.45;107219;1250;59632;-67
2022/05/31 00:32:29;;;;;;;14.70;8.20;;;;;;;14.92;91.15;100837.29;107279;1250;73612;-66
2022/05/31 00:35:08;;;;;;;15.90;8.70;;;;;;;14.90;91.32;100838.69;107083;1251;70113;-68
2022/05/31 00:37:37;;;;;;;13.40;8.00;;;;;;;14.87;91.10;100844.70;107281;1250;67916;-69
2022/05/31 00:40:08;;;;;;;13.80;8.80;;;;;;;14.86;91.73;100849.77;106885;1253;71228;-68
2022/05/31 00:42:53;;;;;;;12.30;9.40;;;;;;;14.83;90.66;100850.34;107120;1250;61679;-69
2022/05/31 00:45:34;;;;;;;12.90;9.10;;;;;;;14.81;92.27;100848.75;107080;1251;59569;-69
2022/05/31 00:48:10;;;;;;;20.40;10.80;;;;;;;14.81;92.56;100846.66;107032;1251;70985;-68
2022/05/31 00:50:51;;;;;;;12.00;8.80;;;;;;;14.81;92.27;100844.90;107167;1251;71581;-68
2022/05/31 00:53:38;;;;;;;13.70;8.90;;;;;;;14.81;92.10;100846.88;107313;1250;70508;-65
2022/05/31 00:56:15;;;;;;;15.40;10.30;;;;;;;14.80;92.18;100845.89;107220;1249;74385;-68
2022/05/31 00:59:17;;;;;;;13.20;8.80;;;;;;;14.81;92.35;100846.67;107198;1250;62538;-67
2022/05/31 01:01:51;;;;;;;13.20;8.80;;;;;;;14.84;92.39;100851.11;107196;1250;60383;-66
2022/05/31 01:04:33;;;;;;;13.20;9.10;;;;;;;14.87;91.88;100860.19;107211;1251;73620;-67
2022/05/31 01:07:03;;;;;;;12.20;8.80;;;;;;;14.88;91.81;100865.69;108446;1251;73090;-68
2022/05/31 01:09:32;;;;;;;12.80;8.20;;;;;;;14.89;91.48;100860.14;107110;1251;71649;-67
2022/05/31 01:12:21;;;;;;;12.40;8.30;;;;;;;14.87;90.86;100863.88;106999;1250;74385;-68
2022/05/31 01:15:12;;;;;;;11.00;8.30;;;;;;;14.84;90.58;100860.18;107189;1250;63096;-67
2022/05/31 01:17:59;;;;;;;15.90;9.60;;;;;;;14.83;91.67;100858.45;107193;1250;60313;-67
2022/05/31 01:20:28;;;;;;;17.20;10.30;;;;;;;14.81;91.48;100858.27;107183;1251;71667;-65
2022/05/31 01:23:12;;;;;;;15.50;10.60;;;;;;;14.78;91.19;100860.59;107220;1250;69902;-67
2022/05/31 01:25:54;;;;;;;17.30;9.90;;;;;;;14.77;91.03;100861.09;107362;1247;69764;-67
2022/05/31 01:28:50;;;;;;;16.40;9.80;;;;;;;14.77;91.19;100861.92;107306;1247;71584;-68
2022/05/31 01:31:42;;;;;;;18.90;11.60;;;;;;;14.76;90.82;100863.09;107305;1247;61270;-66
2022/05/31 01:34:28;;;;;;;20.50;13.00;;;;;;;14.72;90.83;100862.84;107241;1250;59770;-68
2022/05/31 01:36:58;;;;;;;22.40;13.60;;;;;;;14.67;90.79;100859.78;107328;1247;71732;-67
2022/05/31 01:39:53;;;;;;;20.60;13.10;;;;;;;14.64;90.90;100861.46;107380;1247;69698;-67
2022/05/31 01:42:44;;;;;;;24.70;15.60;;;;;;;14.63;91.32;100864.21;107332;1247;67911;-68
2022/05/31 01:45:18;;;;;;;28.70;16.80;;;;;;;14.63;92.04;100874.41;107332;1247;73243;-68
2022/05/31 01:47:48;;;;;;;25.50;16.40;;;;;;;14.62;91.83;100883.77;107319;1247;62692;-67
2022/05/31 01:50:20;;;;;;;23.80;15.30;;;;;;;14.58;90.12;100885.66;107264;1247;61175;-67
2022/05/31 01:52:51;;;;;;;28.10;16.50;;;;;;;14.49;91.08;100887.86;107249;1247;73323;-67
2022/05/31 01:55:22;;;;;;;24.70;16.70;;;;;;;14.44;91.06;100890.15;107222;1247;70900;-68
2022/05/31 01:57:59;;;;;;;25.60;16.20;;;;;;;14.40;91.72;100888.04;107250;1247;71155;-67
2022/05/31 02:00:27;;;;;;;28.90;17.90;;;;;;;14.39;91.85;100892.69;107184;1247;74306;-68
2022/05/31 02:03:01;;;;;;;24.70;16.60;;;;;;;14.38;91.20;100893.47;107371;1247;61706;-66
2022/05/31 02:05:29;;;;;;;30.30;17.20;;;;;;;14.39;92.25;100895.14;107417;1247;61254;-69
2022/05/31 02:08:03;;;;;;;27.20;15.80;;;;;;;14.38;91.91;100896.44;107239;1247;73981;-69
2022/05/31 02:10:33;;;;;;;29.50;17.80;;;;;;;14.39;91.30;100898.51;107367;1247;72229;-68
2022/05/31 02:13:04;;;;;;;23.70;17.60;;;;;;;14.39;91.82;100902.55;107441;1247;68528;-68
2022/05/31 02:15:45;;;;;;;24.30;16.50;;;;;;;14.37;93.06;100904.63;107338;1246;71971;-69
2022/05/31 02:18:17;;;;;;;23.50;16.30;;;;;;;14.41;93.64;100908.32;107312;1247;61691;-66
2022/05/31 02:20:55;;;;;;;27.30;16.00;;;;;;;14.46;93.61;100914.16;107310;1247;60425;-69
2022/05/31 02:23:25;;;;;;;28.70;18.40;;;;;;;14.55;93.71;100916.27;107298;1247;74162;-68
2022/05/31 02:25:53;;;;;;;25.40;16.10;;;;;;;14.53;91.92;100923.05;107190;1248;73120;-68
2022/05/31 02:28:23;;;;;;;24.70;16.70;;;;;;;14.50;91.51;100928.02;107356;1247;70440;-70
2022/05/31 02:30:55;;;;;;;29.20;17.70;;;;;;;14.48;91.77;100935.07;107165;1248;75569;-68
2022/05/31 02:33:24;;;;;;;26.00;16.00;;;;;;;14.45;91.73;100937.20;107156;1247;60531;-68
2022/05/31 02:35:53;;;;;;;24.90;16.80;;;;;;;14.47;92.29;100939.33;107312;1247;59513;-69
2022/05/31 02:38:22;;;;;;;24.10;16.80;;;;;;;14.52;92.81;100937.32;107296;1247;70861;-69
2022/05/31 02:40:51;;;;;;;26.70;17.90;;;;;;;14.55;92.92;100933.57;107340;1247;70576;-69
2022/05/31 02:43:20;;;;;;;25.30;16.30;;;;;;;14.56;93.43;100935.61;107307;1247;70431;-70
2022/05/31 02:45:49;;;;;;;23.20;16.10;;;;;;;14.60;92.80;100938.60;107198;1247;76818;-72
2022/05/31 02:48:18;;;;;;;23.40;17.10;;;;;;;14.65;92.42;100938.88;106951;1248;63718;-69
2022/05/31 02:50:46;;;;;;;27.30;16.80;;;;;;;14.73;92.73;100934.83;107216;1248;59783;-70
2022/05/31 02:53:17;;;;;;;27.50;15.80;;;;;;;14.77;92.28;100930.95;107340;1247;73019;-66
2022/05/31 02:55:45;;;;;;;24.50;16.80;;;;;;;14.83;91.86;100934.69;107273;1247;73116;-67
2022/05/31 02:58:58;;;;;;;27.90;16.50;;;;;;;14.92;91.20;100937.60;107161;1247;69644;-66
2022/05/31 03:02:10;;;;;;;22.70;16.30;;;;;;;15.00;90.82;100937.96;107351;1247;72292;-65
2022/05/31 03:04:58;;;;;;;25.50;16.20;;;;;;;15.08;90.52;100940.34;107297;1247;63593;-68
2022/05/31 03:07:45;;;;;;;21.70;15.50;;;;;;;15.19;89.98;100946.98;107446;1247;60589;-68
2022/05/31 03:10:18;;;;;;;23.70;16.90;;;;;;;15.28;89.21;100950.88;107352;1247;70841;-69
2022/05/31 03:12:49;;;;;;;21.40;15.40;;;;;;;15.36;88.78;100952.30;107407;1247;70033;-67
2022/05/31 03:15:20;;;;;;;28.50;16.70;;;;;;;15.47;88.42;100953.47;107347;1247;70533;-66
2022/05/31 03:18:01;;;;;;;25.20;16.50;;;;;;;15.54;88.27;100951.52;107451;1246;74515;-66
2022/05/31 03:20:38;;;;;;;23.60;16.60;;;;;;;15.65;88.32;100952.05;107415;1247;62739;-68
2022/05/31 03:23:39;;;;;;;26.00;16.40;;;;;;;15.74;87.72;100960.33;107363;1247;60081;-69
2022/05/31 03:26:11;;;;;;;24.00;16.90;;;;;;;15.79;87.52;100968.10;107314;1247;71534;-69
2022/05/31 03:28:40;;;;;;;64.40;38.20;;;;;;;15.88;87.45;100969.23;107422;1247;71666;-68
2022/05/31 03:31:09;;;;;;;27.60;17.60;;;;;;;15.99;87.23;100967.77;107483;1246;69878;-68
2022/05/31 03:33:38;;;;;;;21.80;16.30;;;;;;;16.09;87.07;100961.52;107402;1247;73725;-71
2022/05/31 03:36:08;;;;;;;23.30;15.80;;;;;;;16.20;87.23;100964.59;107211;1247;62575;-68
2022/05/31 03:38:44;;;;;;;22.40;15.60;;;;;;;16.40;86.38;100968.88;107451;1247;60273;-66
2022/05/31 03:41:14;;;;;;;24.60;15.80;;;;;;;16.35;86.63;100974.63;107372;1247;72787;-69
2022/05/31 03:43:48;;;;;;;20.10;13.10;;;;;;;16.42;86.20;100971.81;107356;1247;71932;-69
2022/05/31 03:46:25;;;;;;;21.20;14.10;;;;;;;16.56;85.88;100974.59;107481;1247;71636;-69
2022/05/31 03:49:09;;;;;;;24.10;14.00;;;;;;;16.63;86.00;100982.86;107399;1247;74347;-68
2022/05/31 03:51:50;;;;;;;23.80;14.20;;;;;;;16.63;86.51;100985.03;107313;1247;62576;-67
2022/05/31 03:54:36;;;;;;;22.40;14.30;;;;;;;16.73;86.49;100982.33;107459;1247;60747;-68
2022/05/31 03:57:08;;;;;;;22.40;14.40;;;;;;;16.83;86.23;100983.49;107459;1247;72782;-68
2022/05/31 03:59:38;;;;;;;20.80;13.00;;;;;;;16.90;86.62;100986.70;107395;1247;70836;-67
2022/05/31 04:02:07;;;;;;;17.40;12.40;;;;;;;17.08;85.53;100984.00;107359;1250;69019;-68
2022/05/31 04:04:37;;;;;;;16.30;11.90;;;;;;;17.09;85.57;100993.35;107524;1247;73088;-68
2022/05/31 04:07:06;;;;;;;18.00;12.80;;;;;;;16.98;86.35;101002.16;107411;1246;62953;-74
2022/05/31 04:09:35;;;;;;;15.90;12.40;;;;;;;16.77;87.14;101003.06;107408;1247;61002;-69
2022/05/31 04:12:07;;;;;;;15.80;12.40;;;;;;;16.65;87.78;101005.92;107320;1247;73995;-75
2022/05/31 04:14:55;;;;;;;21.90;12.90;;;;;;;16.52;88.69;101010.13;107301;1247;71063;-74
2022/05/31 04:17:24;;;;;;;21.80;14.90;;;;;;;16.48;88.98;101010.02;107288;1247;69108;-72
2022/05/31 04:19:53;;;;;;;20.90;16.00;;;;;;;16.48;89.80;101010.02;107356;1247;71459;-76
2022/05/31 04:22:22;;;;;;;20.50;14.00;;;;;;;16.55;89.89;101007.73;107122;1247;61394;-70
2022/05/31 04:24:57;;;;;;;17.60;13.70;;;;;;;16.69;88.76;101013.15;107356;1247;60576;-70
2022/05/31 04:27:44;;;;;;;19.10;13.10;;;;;;;16.80;88.85;101012.84;107207;1247;72894;-68
2022/05/31 04:30:32;;;;;;;15.90;11.60;;;;;;;16.89;88.25;101010.75;107177;1247;72770;-70
2022/05/31 04:33:29;;;;;;;17.90;13.80;;;;;;;16.89;88.61;101009.66;107245;1247;69684;-76
2022/05/31 04:36:01;;;;;;;25.50;16.30;;;;;;;17.04;87.96;101007.23;107523;1247;73061;-75
2022/05/31 04:38:30;;;;;;;25.00;17.00;;;;;;;17.13;88.47;101012.12;107211;1247;63373;-71
2022/05/31 04:41:07;;;;;;;25.20;17.60;;;;;;;17.30;88.33;101010.02;107376;1247;60166;-77
2022/05/31 04:44:26;;;;;;;26.40;18.00;;;;;;;17.46;87.43;101011.42;107789;1247;73431;-69
2022/05/31 04:46:55;;;;;;;22.10;17.20;;;;;;;17.56;87.30;101013.66;109043;1247;72349;-69
2022/05/31 04:49:36;;;;;;;30.10;18.70;;;;;;;17.65;87.08;101013.77;107536;1247;60370;-70
2022/05/31 04:52:05;;;;;;;16.80;12.40;;;;;;;17.67;87.34;101015.91;107313;1250;72335;-68
2022/05/31 04:54:39;;;;;;;18.90;13.60;;;;;;;17.90;85.19;101011.24;107358;1247;62332;-69
2022/05/31 04:57:27;;;;;;;16.20;12.20;;;;;;;17.72;85.63;101012.29;107301;1247;60092;-69
2022/05/31 04:59:56;;;;;;;15.50;11.80;;;;;;;17.97;84.66;101021.83;107289;1247;63933;-69
2022/05/31 05:02:25;;;;;;;18.60;11.10;;;;;;;18.06;84.11;101024.81;107422;1247;60801;-69
2022/05/31 05:05:01;;;;;;;18.80;14.40;;;;;;;18.02;84.02;101023.97;107434;1247;59642;-69
2022/05/31 05:07:50;;;;;;;19.80;14.00;;;;;;;17.99;84.40;101021.06;107467;1247;72316;-67
2022/05/31 05:10:21;;;;;;;22.60;14.10;;;;;;;17.90;84.98;101022.40;107403;1247;62451;-71
2022/05/31 05:12:49;;;;;;;18.20;14.50;;;;;;;18.08;84.54;101023.95;107450;1247;59784;-71
2022/05/31 05:16:07;;;;;;;22.00;14.60;;;;;;;18.26;83.93;101025.02;107311;1247;74592;-71
2022/05/31 05:18:39;;;;;;;20.80;14.00;;;;;;;18.53;83.49;101027.12;107357;1247;72640;-69
2022/05/31 05:21:13;;;;;;;19.00;13.90;;;;;;;18.72;82.79;101024.84;107300;1247;71430;-73
2022/05/31 05:23:43;;;;;;;23.00;14.50;;;;;;;18.84;82.61;101032.34;107477;1247;73670;-72
2022/05/31 05:26:15;;;;;;;17.10;14.40;;;;;;;19.00;81.91;101030.31;107710;1246;62579;-87
2022/05/31 05:31:54;;;;;;;19.80;15.80;;;;;;;19.26;79.97;101042.44;107667;1247;62712;-78
2022/05/31 05:34:54;;;;;;;18.90;13.80;;;;;;;19.19;80.28;101044.83;107660;1247;70878;-79
2022/05/31 05:37:24;;;;;;;21.60;14.30;;;;;;;19.22;80.14;101047.05;107559;1247;60371;-77
2022/05/31 05:39:53;;;;;;;20.40;14.90;;;;;;;19.34;79.94;101043.40;107300;1247;73979;-73
2022/05/31 05:42:45;;;;;;;17.60;13.40;;;;;;;19.38;79.55;101047.59;107273;1247;58991;-75
2022/05/31 05:45:32;;;;;;;17.60;13.80;;;;;;;19.37;79.50;101045.33;107244;1248;58413;-76
2022/05/31 05:48:02;;;;;;;20.30;14.50;;;;;;;19.36;79.64;101047.02;107350;1248;62215;-75
2022/05/31 05:50:36;;;;;;;18.20;13.40;;;;;;;19.46;79.48;101049.73;107153;1247;71452;-77
2022/05/31 05:53:10;;;;;;;20.30;14.30;;;;;;;19.42;79.57;101051.71;107416;1247;71186;-77
2022/05/31 05:55:58;;;;;;;17.30;12.50;;;;;;;19.52;79.16;101057.41;107339;1247;74045;-77
2022/05/31 05:58:47;;;;;;;18.00;13.10;;;;;;;19.61;78.48;101054.39;107296;1247;63544;-78
2022/05/31 06:01:45;;;;;;;17.80;13.90;;;;;;;19.54;78.87;101053.09;107490;1247;60892;-79
2022/05/31 06:04:55;;;;;;;18.80;12.90;;;;;;;19.72;78.27;101055.98;107472;1247;62731;-78
2022/05/31 06:07:33;;;;;;;17.00;12.30;;;;;;;19.82;77.70;101057.59;107392;1247;71428;-73
2022/05/31 06:10:39;;;;;;;15.30;11.80;;;;;;;19.72;78.03;101065.18;107521;1247;70249;-77
2022/05/31 06:13:24;;;;;;;19.60;12.70;;;;;;;19.75;77.08;101064.23;107497;1247;73750;-78
2022/05/31 06:15:56;;;;;;;16.00;12.50;;;;;;;19.60;77.96;101067.35;107464;1247;63250;-76
2022/05/31 06:18:35;;;;;;;17.60;13.60;;;;;;;19.69;77.62;101065.20;107602;1247;59957;-74
2022/05/31 06:21:08;;;;;;;14.90;11.70;;;;;;;19.65;78.05;101065.55;107443;1248;62218;-76
2022/05/31 06:23:39;;;;;;;15.00;12.10;;;;;;;19.82;77.27;101068.61;107484;1247;71409;-76
2022/05/31 06:26:09;;;;;;;16.90;12.50;;;;;;;19.86;76.70;101069.05;107406;1247;59534;-76
2022/05/31 06:28:41;;;;;;;17.00;12.80;;;;;;;19.67;77.10;101075.63;107338;1247;62497;-76
2022/05/31 06:31:10;;;;;;;15.20;11.40;;;;;;;19.60;77.17;101069.52;107518;1247;61123;-80
2022/05/31 06:33:40;;;;;;;14.90;11.50;;;;;;;19.59;77.14;101071.14;107542;1247;60182;-77
2022/05/31 06:36:09;;;;;;;15.30;10.80;;;;;;;19.63;76.94;101073.00;107510;1247;73072;-79
2022/05/31 06:38:37;;;;;;;13.30;11.10;;;;;;;19.71;76.78;101072.70;107478;1247;72407;-77
2022/05/31 06:41:06;;;;;;;15.30;11.80;;;;;;;19.89;76.22;101072.41;107530;1247;59821;-78
2022/05/31 06:44:07;;;;;;;17.80;11.50;;;;;;;19.96;75.91;101072.55;107404;1247;63299;-76
2022/05/31 06:46:57;;;;;;;17.10;11.60;;;;;;;20.08;75.79;101077.28;107566;1247;62898;-78
2022/05/31 06:50:16;;;;;;;15.10;11.80;;;;;;;20.19;75.04;101067.82;107092;1247;62408;-81
2022/05/31 06:59:32;;;;;;;16.20;12.10;;;;;;;20.11;75.61;101076.79;107250;1247;69227;-79
2022/05/31 07:02:04;;;;;;;16.70;12.30;;;;;;;20.01;76.26;101077.70;107511;1247;62935;-79
2022/05/31 07:04:37;;;;;;;18.50;12.80;;;;;;;20.09;76.38;101082.99;107389;1247;62207;-77
2022/05/31 07:07:07;;;;;;;14.80;12.70;;;;;;;20.26;75.77;101086.09;107436;1247;57438;-75
2022/05/31 07:10:20;;;;;;;14.40;11.20;;;;;;;20.22;75.84;101085.16;107220;1247;74036;-81
2022/05/31 07:13:08;;;;;;;14.50;12.10;;;;;;;20.37;75.53;101083.87;107494;1247;72162;-78
2022/05/31 07:16:00;;;;;;;18.40;13.40;;;;;;;20.31;75.21;101088.74;107569;1247;60865;-80
2022/05/31 07:18:50;;;;;;;16.50;13.50;;;;;;;20.20;75.66;101089.06;107511;1247;73491;-78
2022/05/31 07:21:26;;;;;;;17.90;14.30;;;;;;;20.28;75.39;101089.96;107360;1249;61188;-78
2022/05/31 07:23:56;;;;;;;17.20;14.60;;;;;;;20.12;76.10;101091.33;107464;1247;62281;-78
2022/05/31 07:26:26;;;;;;;16.10;14.10;;;;;;;20.28;75.46;101095.97;107183;1248;63861;-76
2022/05/31 07:29:05;;;;;;;19.90;15.60;;;;;;;20.01;76.48;101099.10;107185;1250;72062;-77
2022/05/31 07:31:35;;;;;;;18.00;14.80;;;;;;;20.08;75.97;101101.17;107226;1249;59102;-78
2022/05/31 07:34:25;;;;;;;21.20;16.10;;;;;;;20.08;76.23;101102.58;107410;1247;62890;-77
2022/05/31 07:36:55;;;;;;;24.70;14.80;;;;;;;19.94;77.17;101102.45;107331;1247;63211;-79
2022/05/31 07:39:24;;;;;;;20.50;14.30;;;;;;;20.18;76.22;101106.96;107386;1247;61324;-81
2022/05/31 07:41:54;;;;;;;18.70;14.60;;;;;;;20.19;75.92;101110.77;107268;1247;74092;-79
2022/05/31 07:44:25;;;;;;;18.60;14.00;;;;;;;20.06;76.13;101107.84;107153;1247;61654;-80
2022/05/31 07:46:54;;;;;;;21.50;14.40;;;;;;;20.05;75.98;101106.73;107378;1250;59115;-80
2022/05/31 07:49:24;;;;;;;19.90;14.10;;;;;;;19.95;76.70;101107.30;107524;1247;73113;-80
2022/05/31 07:52:33;;;;;;;22.50;14.50;;;;;;;19.91;76.94;101110.73;107162;1247;59036;-80
2022/05/31 07:55:20;;;;;;;20.40;13.50;;;;;;;19.92;76.71;101115.29;107331;1247;57472;-75
2022/05/31 08:01:14;;;;;;;14.70;12.10;;;;;;;19.82;76.53;101117.66;107401;1246;61263;-79
2022/05/31 08:03:44;;;;;;;18.90;12.20;;;;;;;19.86;76.46;101117.80;107449;1247;69738;-80
2022/05/31 08:06:17;;;;;;;14.80;11.80;;;;;;;19.92;76.51;101119.48;107614;1246;63026;-78
2022/05/31 08:08:46;;;;;;;;;;;;;;;20.26;76.03;101114.25;107439;1249;59455;-76
2022/05/31 08:11:25;;;;;;;14.10;11.70;;;;;;;20.81;74.79;101108.16;107556;1247;60520;-76
2022/05/31 08:13:55;;;;;;;14.50;11.50;;;;;;;21.27;73.50;101109.60;107605;1247;63527;-78
2022/05/31 08:16:28;;;;;;;16.50;11.20;;;;;;;21.57;71.35;101108.42;107304;1247;71535;-79
2022/05/31 08:18:58;;;;;;;14.40;10.70;;;;;;;21.72;71.41;101108.68;107492;1247;70983;-79
2022/05/31 08:21:30;;;;;;;17.70;11.10;;;;;;;21.78;71.06;101109.54;107663;1247;74659;-81
2022/05/31 08:24:07;;;;;;;15.40;10.90;;;;;;;21.77;70.44;101105.73;107579;1247;61751;-78
2022/05/31 08:26:55;;;;;;;14.40;10.10;;;;;;;21.78;70.01;101109.54;107628;1247;61721;-80
2022/05/31 08:29:24;;;;;;;15.90;11.30;;;;;;;22.14;68.70;101101.90;107389;1248;74489;-83
2022/05/31 08:31:54;;;;;;;15.40;11.10;;;;;;;22.09;68.44;101104.02;107701;1247;73161;-76
2022/05/31 08:34:23;;;;;;;13.20;9.90;;;;;;;22.11;68.86;101108.46;107896;1247;70286;-76
2022/05/31 08:36:51;;;;;;;13.70;10.80;;;;;;;22.06;68.67;101102.41;108728;1247;73742;-78
2022/05/31 08:39:21;;;;;;;16.90;10.30;;;;;;;22.13;68.68;101103.39;108948;1247;59030;-76
2022/05/31 08:42:04;;;;;;;15.60;10.70;;;;;;;22.20;68.10;101104.02;108352;1247;58900;-77
2022/05/31 08:44:58;;;;;;;15.50;10.90;;;;;;;22.14;68.05;101108.25;108112;1247;63844;-75
2022/05/31 08:47:47;;;;;;;14.30;10.80;;;;;;;22.09;67.88;101112.45;107847;1247;72600;-78
2022/05/31 08:53:36;;;;;;;14.90;10.60;;;;;;;21.78;68.60;101115.88;107627;1247;73875;-79
2022/05/31 08:59:24;;;;;;;14.10;10.60;;;;;;;21.85;69.30;101110.83;107448;1247;60794;-79
2022/05/31 09:02:00;;;;;;;15.50;10.80;;;;;;;22.05;68.83;101111.23;107629;1247;63580;-76
2022/05/31 09:04:46;;;;;;;17.50;10.80;;;;;;;22.30;67.91;101117.55;107605;1247;61643;-81
2022/05/31 09:07:33;;;;;;;14.60;9.90;;;;;;;22.42;67.41;101115.34;107515;1249;60791;-78
2022/05/31 09:10:13;;;;;;;15.70;10.10;;;;;;;22.73;66.00;101113.35;107483;1247;73077;-81
2022/05/31 09:13:15;;;;;;;14.30;10.40;;;;;;;22.85;66.11;101114.02;107623;1247;57346;-75
2022/05/31 09:15:59;;;;;;;15.90;9.20;;;;;;;22.92;65.46;101111.99;107388;1247;59184;-78
2022/05/31 09:18:43;;;;;;;14.00;9.60;;;;;;;22.88;65.62;101113.15;107626;1247;73606;-76
2022/05/31 09:21:43;;;;;;;13.60;9.30;;;;;;;22.92;65.48;101116.39;107423;1247;61273;-76
2022/05/31 09:24:19;;;;;;;14.20;9.90;;;;;;;23.04;65.27;101113.59;107530;1249;59239;-80
2022/05/31 09:27:06;;;;;;;17.70;10.60;;;;;;;22.92;65.49;101114.45;107400;1247;62577;-81
2022/05/31 09:29:50;;;;;;;16.40;10.90;;;;;;;23.22;64.30;101112.09;107495;1247;58240;-81
2022/05/31 09:33:07;;;;;;;13.90;9.00;;;;;;;23.48;64.23;101110.69;107564;1247;59136;-82
2022/05/31 09:35:56;;;;;;;13.40;9.00;;;;;;;23.84;62.46;101111.89;107484;1247;62226;-79
2022/05/31 09:39:32;;;;;;;13.90;9.50;;;;;;;23.99;61.53;101111.78;107495;1247;61697;-81
2022/05/31 09:42:20;;;;;;;13.50;10.00;;;;;;;24.06;61.86;101115.02;107186;1249;59219;-78
2022/05/31 09:45:13;;;;;;;11.70;8.30;;;;;;;24.25;61.31;101110.97;107565;1247;62358;-77
2022/05/31 09:47:42;;;;;;;15.20;10.10;;;;;;;24.63;59.65;101117.04;107625;1247;59716;-80
2022/05/31 09:50:11;;;;;;;15.00;9.80;;;;;;;24.68;59.31;101114.80;107608;1247;61267;-80
2022/05/31 09:52:47;;;;;;;10.00;8.40;;;;;;;24.59;59.83;101115.71;107650;1247;73438;-75
2022/05/31 09:59:23;;;;;;;13.50;9.00;;;;;;;24.38;59.89;101119.02;107697;1247;60060;-79
2022/05/31 10:02:36;;;;;;;17.50;9.10;;;;;;;24.30;60.09;101117.97;107588;1247;74164;-82
2022/05/31 10:05:21;;;;;;;13.30;9.80;;;;;;;24.41;59.93;101116.06;107681;1248;61931;-79
2022/05/31 10:07:50;;;;;;;;;;;;;;;24.47;59.55;101117.90;107634;1247;59132;-77
2022/05/31 10:10:35;;;;;;;13.30;9.50;;;;;;;24.44;59.57;101119.91;107768;1247;62971;-81
2022/05/31 10:13:09;;;;;;;13.10;9.40;;;;;;;24.42;59.71;101117.80;107782;1247;61676;-80
2022/05/31 10:15:44;;;;;;;12.50;8.90;;;;;;;24.60;59.16;101121.30;107665;1247;60008;-74
2022/05/31 10:18:31;;;;;;;13.80;8.00;;;;;;;24.95;58.45;101114.73;107657;1246;62392;-78
2022/05/31 10:21:09;;;;;;;12.80;8.80;;;;;;;25.27;57.05;101114.19;107661;1247;59128;-80
2022/05/31 10:23:43;;;;;;;12.50;8.00;;;;;;;25.26;56.94;101113.23;107591;1247;61126;-76
2022/05/31 10:26:37;;;;;;;15.10;8.10;;;;;;;25.25;56.68;101114.27;107484;1247;74484;-79
2022/05/31 10:29:40;;;;;;;12.10;8.10;;;;;;;25.29;56.22;101109.23;107573;1247;62328;-77
2022/05/31 10:32:41;;;;;;;12.90;7.20;;;;;;;25.74;55.95;101108.36;107487;1246;70940;-76
2022/05/31 10:35:31;;;;;;;10.80;8.10;;;;;;;25.87;54.81;101107.13;107600;1247;75485;-78
2022/05/31 10:38:24;;;;;;;9.30;6.80;;;;;;;25.83;55.21;101102.31;107626;1247;60881;-79
2022/05/31 10:41:05;;;;;;;12.90;7.50;;;;;;;26.21;53.52;101104.60;107235;1248;61708;-78
2022/05/31 10:43:45;;;;;;;10.50;7.80;;;;;;;26.54;53.40;101095.58;107413;1247;74406;-79
2022/05/31 10:46:34;;;;;;;9.20;6.80;;;;;;;26.63;52.42;101095.41;107272;1248;71848;-83
2022/05/31 10:49:18;;;;;;;11.60;7.70;;;;;;;26.47;51.97;101099.33;107564;1247;60423;-79
2022/05/31 10:52:37;;;;;;;11.60;7.30;;;;;;;26.74;52.15;101097.02;107259;1248;73067;-79
2022/05/31 10:55:41;;;;;;;12.10;7.90;;;;;;;26.87;52.41;101093.75;107283;1247;60923;-75
2022/05/31 10:58:52;;;;;;;9.70;6.90;;;;;;;27.08;50.71;101087.87;107331;1248;62689;-79
2022/05/31 11:01:52;;;;;;;10.40;6.70;;;;;;;27.24;50.06;101087.13;107588;1249;62740;-77
2022/05/31 11:04:34;;;;;;;9.90;6.80;;;;;;;27.09;50.58;101084.84;107377;1249;61688;-79
2022/05/31 11:07:30;;;;;;;9.70;5.80;;;;;;;27.02;50.75;101079.02;107621;1248;60278;-76
2022/05/31 11:13:11;;;;;;;7.90;6.60;;;;;;;27.80;48.45;101075.59;107292;1248;59255;-80
2022/05/31 11:16:10;;;;;;;10.90;6.60;;;;;;;27.82;48.19;101078.84;107300;1250;61500;-79
2022/05/31 11:19:04;;;;;;;11.00;6.30;;;;;;;27.92;48.27;101078.65;107752;1247;74368;-80
2022/05/31 11:21:51;;;;;;;12.00;6.90;;;;;;;27.89;48.04;101075.36;107495;1249;62028;-78
2022/05/31 11:24:34;;;;;;;9.70;5.70;;;;;;;27.99;47.83;101074.07;107720;1246;70665;-75
2022/05/31 11:27:55;;;;;;;7.50;5.40;;;;;;;28.12;47.70;101070.34;107628;1247;72268;-77
2022/05/31 11:30:38;;;;;;;7.30;5.80;;;;;;;27.61;48.23;101069.27;107589;1247;58994;-78
2022/05/31 11:33:26;;;;;;;10.50;5.40;;;;;;;27.72;48.16;101062.32;107659;1247;60999;-79
2022/05/31 11:36:33;;;;;;;8.20;5.60;;;;;;;28.60;46.88;101062.89;107629;1249;74024;-81
2022/05/31 11:39:24;;;;;;;9.30;5.20;;;;;;;28.42;46.28;101063.71;107625;1247;61246;-81
2022/05/31 11:42:43;;;;;;;10.60;5.20;;;;;;;28.39;46.38;101054.80;107558;1247;59973;-81
2022/05/31 11:45:45;;;;;;;8.30;5.60;;;;;;;28.81;45.42;101048.20;107398;1247;74324;-78
2022/05/31 11:48:49;;;;;;;8.10;5.00;;;;;;;28.38;46.38;101046.96;106931;1247;827234;-80
2022/05/31 11:51:30;;;;;;;6.10;4.50;;;;;;;29.59;44.03;101042.95;107611;1247;60385;-78
2022/05/31 11:58:29;;;;;;;6.00;4.60;;;;;;;30.34;42.40;101038.31;107783;1247;71576;-79
2022/05/31 12:01:09;;;;;;;9.00;4.80;;;;;;;30.51;41.84;101031.04;107796;1247;60910;-78
2022/05/31 12:03:40;;;;;;;10.30;4.90;;;;;;;31.06;40.69;101032.13;107758;1247;62446;-79
2022/05/31 12:06:37;;;;;;;7.20;3.80;;;;;;;30.33;40.23;101030.98;107658;1247;58987;-79
2022/05/31 12:09:35;;;;;;;8.40;3.60;;;;;;;30.17;40.12;101026.39;107603;1247;61244;-80
2022/05/31 12:12:22;;;;;;;7.00;4.10;;;;;;;30.65;39.16;101026.23;107499;1247;64179;-81
2022/05/31 12:14:55;;;;;;;7.80;4.00;;;;;;;31.22;37.79;101029.23;107240;1248;72253;-79
2022/05/31 12:17:52;;;;;;;5.90;4.00;;;;;;;30.80;38.33;101026.04;107599;1247;70116;-81
2022/05/31 12:20:58;;;;;;;7.90;4.40;;;;;;;30.65;39.16;101031.80;107277;1247;74532;-79
2022/05/31 12:24:02;;;;;;;6.90;4.70;;;;;;;31.06;38.51;101029.31;107588;1245;58576;-84
2022/05/31 12:26:54;;;;;;;7.20;3.50;;;;;;;30.96;38.12;101031.67;107419;1247;60517;-82
2022/05/31 12:29:34;;;;;;;6.10;3.30;;;;;;;30.75;37.09;101029.71;107516;1247;64040;-81
2022/05/31 12:32:29;;;;;;;4.90;3.50;;;;;;;30.72;36.40;101033.09;107509;1248;71495;-82
2022/05/31 12:35:02;;;;;;;6.50;3.40;;;;;;;30.52;36.45;101026.70;107616;1247;71046;-82
2022/05/31 12:38:07;;;;;;;7.00;4.40;;;;;;;31.04;36.51;101019.73;107481;1247;73856;-82